createdAt,value
2023-03-13T00:01:39.883Z,0.63
2023-03-13T00:04:25.872Z,0.50
2023-03-13T00:07:13.794Z,2.15
2023-03-13T00:09:59.477Z,1.58
2023-03-13T00:12:45.736Z,3.50
2023-03-13T00:15:32.063Z,1.02
2023-03-13T00:18:17.882Z,0.73
2023-03-13T00:21:09.493Z,0.68
2023-03-13T00:23:56.178Z,0.77
2023-03-13T00:26:42.575Z,0.30
2023-03-13T00:29:27.907Z,0.70
2023-03-13T00:32:19.988Z,0.52
2023-03-13T00:35:05.990Z,0.80
2023-03-13T00:37:52.919Z,0.47
2023-03-13T00:40:39.016Z,0.60
2023-03-13T00:43:24.930Z,1.08
2023-03-13T00:46:11.495Z,0.85
2023-03-13T00:48:58.186Z,1.63
2023-03-13T00:51:44.548Z,2.00
2023-03-13T00:54:30.794Z,1.83
2023-03-13T00:57:16.943Z,1.02
2023-03-13T01:00:05.717Z,2.60
2023-03-13T01:02:52.212Z,1.27
2023-03-13T01:05:38.401Z,1.10
2023-03-13T01:08:24.925Z,0.68
2023-03-13T01:11:14.432Z,1.20
2023-03-13T01:14:05.225Z,0.20
2023-03-13T01:16:51.542Z,1.38
2023-03-13T01:19:37.350Z,0.10
2023-03-13T01:22:23.688Z,0.73
2023-03-13T01:25:09.746Z,1.23
2023-03-13T01:27:55.928Z,0.63
2023-03-13T01:30:42.306Z,1.60
2023-03-13T01:33:28.684Z,0.90
2023-03-13T01:36:15.397Z,0.38
2023-03-13T01:39:02.153Z,1.45
2023-03-13T01:41:48.426Z,0.47
2023-03-13T01:44:55.834Z,0.65
2023-03-13T01:47:43.756Z,1.27
2023-03-13T01:50:34.330Z,0.80
2023-03-13T01:53:37.211Z,0.50
2023-03-13T01:56:34.820Z,3.25
2023-03-13T01:59:26.152Z,1.48
2023-03-13T02:02:14.838Z,1.85
2023-03-13T02:05:03.737Z,2.42
2023-03-13T02:07:58.883Z,3.67
2023-03-13T02:10:51.884Z,3.20
2023-03-13T02:13:37.452Z,1.63
2023-03-13T02:16:24.518Z,1.10
2023-03-13T02:19:45.331Z,0.70
2023-03-13T02:23:01.355Z,0.57
2023-03-13T02:25:53.813Z,2.28
2023-03-13T02:28:44.420Z,2.28
2023-03-13T02:31:33.250Z,2.25
2023-03-13T02:34:25.094Z,0.70
2023-03-13T02:37:14.454Z,1.02
2023-03-13T02:40:06.080Z,0.95
2023-03-13T02:42:53.586Z,1.38
2023-03-13T02:45:40.259Z,1.77
2023-03-13T02:48:40.324Z,3.08
2023-03-13T02:51:34.392Z,1.33
2023-03-13T02:54:37.812Z,4.30
2023-03-13T02:57:24.447Z,2.17
2023-03-13T03:00:16.944Z,1.50
2023-03-13T03:03:03.714Z,4.43
2023-03-13T03:05:49.371Z,2.60
2023-03-13T03:08:35.991Z,0.10
2023-03-13T03:11:22.780Z,0.98
2023-03-13T03:14:34.889Z,0.10
2023-03-13T03:17:20.689Z,0.20
2023-03-13T03:20:12.220Z,1.10
2023-03-13T03:23:01.350Z,1.75
2023-03-13T03:25:47.294Z,0.65
2023-03-13T03:28:34.150Z,1.73
2023-03-13T03:31:24.548Z,0.95
2023-03-13T03:34:10.904Z,0.10
2023-03-13T03:36:56.684Z,1.20
2023-03-13T03:39:42.668Z,2.08
2023-03-13T03:42:28.933Z,1.27
2023-03-13T03:45:14.924Z,1.48
2023-03-13T03:48:00.882Z,0.63
2023-03-13T03:50:46.799Z,0.47
2023-03-13T03:53:33.979Z,4.13
2023-03-13T03:56:20.578Z,1.03
2023-03-13T03:59:12.027Z,0.52
2023-03-13T04:02:01.959Z,1.58
2023-03-13T04:04:49.806Z,3.65
2023-03-13T04:07:42.936Z,1.80
2023-03-13T04:10:28.875Z,1.27
2023-03-13T04:13:15.853Z,0.77
2023-03-13T04:16:08.096Z,0.85
2023-03-13T04:18:54.640Z,0.20
2023-03-13T04:21:42.527Z,1.27
2023-03-13T04:24:33.818Z,0.63
2023-03-13T04:27:20.239Z,0.10
2023-03-13T04:30:08.824Z,2.10
2023-03-13T04:33:30.121Z,0.55
2023-03-13T04:36:34.948Z,1.15
2023-03-13T04:39:52.063Z,0.30
2023-03-13T04:42:56.272Z,0.10
2023-03-13T04:45:58.241Z,0.57
2023-03-13T04:49:02.685Z,0.40
2023-03-13T04:52:07.967Z,0.45
2023-03-13T04:55:19.949Z,1.13
2023-03-13T04:58:29.275Z,0.68
2023-03-13T05:01:42.309Z,0.45
2023-03-13T05:07:55.359Z,0.13
2023-03-13T05:10:50.462Z,0.20
2023-03-13T05:13:55.286Z,0.60
2023-03-13T05:17:06.344Z,0.47
2023-03-13T05:20:15.432Z,0.60
2023-03-13T05:23:08.527Z,0.40
2023-03-13T05:26:14.725Z,0.65
2023-03-13T05:29:10.509Z,0.88
2023-03-13T05:32:25.942Z,0.73
2023-03-13T05:35:38.597Z,0.30
2023-03-13T05:38:43.623Z,0.30
2023-03-13T05:41:37.227Z,0.40
2023-03-13T05:44:36.977Z,1.27
2023-03-13T05:47:23.281Z,0.95
2023-03-13T05:50:41.496Z,1.00
2023-03-13T05:53:47.823Z,0.60
2023-03-13T06:01:15.990Z,0.55
2023-03-13T06:04:11.414Z,0.75
2023-03-13T06:06:59.417Z,0.32
2023-03-13T06:09:45.566Z,0.50
2023-03-13T06:12:33.295Z,0.20
2023-03-13T06:15:19.401Z,0.52
2023-03-13T06:18:35.774Z,0.50
2023-03-13T06:21:23.506Z,0.20
2023-03-13T06:24:09.827Z,0.10
2023-03-13T06:26:56.023Z,0.10
2023-03-13T06:29:41.768Z,0.90
2023-03-13T06:32:28.708Z,0.20
2023-03-13T06:35:15.049Z,2.38
2023-03-13T06:38:02.067Z,0.60
2023-03-13T06:40:48.066Z,0.45
2023-03-13T06:43:35.514Z,0.60
2023-03-13T06:46:34.967Z,0.90
2023-03-13T06:49:21.346Z,2.53
2023-03-13T06:52:10.221Z,1.42
2023-03-13T06:54:56.503Z,4.15
2023-03-13T06:57:44.241Z,2.22
2023-03-13T07:00:31.399Z,3.28
2023-03-13T07:03:20.206Z,1.00
2023-03-13T07:06:06.893Z,3.17
2023-03-13T07:08:54.171Z,3.90
2023-03-13T07:11:43.870Z,2.80
2023-03-13T07:14:31.417Z,3.88
2023-03-13T07:17:24.669Z,3.88
2023-03-13T07:20:11.515Z,5.47
2023-03-13T07:22:57.210Z,1.02
2023-03-13T07:25:43.582Z,0.63
2023-03-13T07:28:31.885Z,1.98
2023-03-13T07:31:21.060Z,2.55
2023-03-13T07:34:07.772Z,0.13
2023-03-13T07:36:55.259Z,0.10
2023-03-13T07:39:42.466Z,0.55
2023-03-13T07:42:28.630Z,0.10
2023-03-13T07:45:16.572Z,0.30
2023-03-13T07:48:02.347Z,1.80
2023-03-13T07:51:17.592Z,1.40
2023-03-13T07:54:07.437Z,0.13
2023-03-13T07:56:55.218Z,0.65
2023-03-13T08:02:47.816Z,0.68
2023-03-13T08:05:35.242Z,0.25
2023-03-13T08:08:23.615Z,0.80
2023-03-13T08:11:14.592Z,0.45
2023-03-13T08:20:22.215Z,1.38
2023-03-13T08:26:12.958Z,2.00
2023-03-13T08:29:10.449Z,0.77
2023-03-13T08:38:09.525Z,0.85
2023-03-13T08:44:03.995Z,2.42
2023-03-13T08:47:02.729Z,0.90
2023-03-13T08:49:51.909Z,1.38
2023-03-13T08:52:38.171Z,2.97
2023-03-13T08:55:26.266Z,1.15
2023-03-13T08:58:15.127Z,2.53
2023-03-13T09:01:14.315Z,1.13
2023-03-13T09:04:03.994Z,3.45
2023-03-13T09:06:51.432Z,1.90
2023-03-13T09:09:38.298Z,1.80
2023-03-13T09:12:30.767Z,2.05
2023-03-13T09:15:18.261Z,0.43
2023-03-13T09:18:08.909Z,0.10
2023-03-13T09:20:56.502Z,1.55
2023-03-13T09:23:42.942Z,3.33
2023-03-13T09:26:32.646Z,1.15
2023-03-13T09:29:25.250Z,1.25
2023-03-13T09:32:12.719Z,0.50
2023-03-13T09:41:34.587Z,2.42
2023-03-13T09:44:29.566Z,0.63
2023-03-13T09:47:41.149Z,0.82
2023-03-13T09:50:41.508Z,2.10
2023-03-13T09:53:45.668Z,1.17
2023-03-13T09:56:44.699Z,3.20
2023-03-13T10:00:00.737Z,1.55
2023-03-13T10:02:56.464Z,2.15
2023-03-13T10:09:09.971Z,2.10
2023-03-13T10:12:06.129Z,1.38
2023-03-13T10:15:10.840Z,0.95
2023-03-13T10:18:11.281Z,0.75
2023-03-13T10:21:01.267Z,0.32
2023-03-13T10:24:05.766Z,1.58
2023-03-13T10:26:52.838Z,1.95
2023-03-13T10:29:39.246Z,2.65
2023-03-13T10:32:27.645Z,0.20
2023-03-13T10:35:22.297Z,0.90
2023-03-13T10:38:22.184Z,0.90
2023-03-13T10:41:33.406Z,1.42
2023-03-13T10:44:25.337Z,1.50
2023-03-13T10:47:17.748Z,0.50
2023-03-13T10:50:05.130Z,0.30
2023-03-13T10:52:52.447Z,1.77
2023-03-13T10:55:44.623Z,2.42
2023-03-13T10:58:48.925Z,1.25
2023-03-13T11:01:42.637Z,0.77
2023-03-13T11:04:33.380Z,5.05
2023-03-13T11:07:35.556Z,0.20
2023-03-13T11:10:38.233Z,2.85
2023-03-13T11:13:37.337Z,0.32
2023-03-13T11:16:29.976Z,1.48
2023-03-13T11:19:33.417Z,2.38
2023-03-13T11:22:54.000Z,2.88
2023-03-13T11:26:05.458Z,1.90
2023-03-13T11:29:04.079Z,3.80
2023-03-13T11:32:00.132Z,1.48
2023-03-13T11:34:57.049Z,1.83
2023-03-13T11:37:45.044Z,2.05
2023-03-13T11:40:45.830Z,0.98
2023-03-13T11:44:05.495Z,0.55
2023-03-13T11:47:15.096Z,4.10
2023-03-13T11:50:23.580Z,0.77
2023-03-13T11:53:33.831Z,2.80
2023-03-13T11:56:58.552Z,3.55
2023-03-13T12:00:08.245Z,0.85
2023-03-13T12:03:27.066Z,3.65
2023-03-13T12:06:31.863Z,2.55
2023-03-13T12:09:29.300Z,3.38
2023-03-13T12:12:24.357Z,2.50
2023-03-13T12:15:34.219Z,0.40
2023-03-13T12:18:32.850Z,3.13
2023-03-13T12:21:53.960Z,2.90
2023-03-13T12:24:54.629Z,2.40
2023-03-13T12:27:47.382Z,2.10
2023-03-13T12:31:00.812Z,3.30
2023-03-13T12:34:26.001Z,0.73
2023-03-13T12:37:31.428Z,1.90
2023-03-13T12:40:40.646Z,4.00
2023-03-13T12:43:40.229Z,5.20
2023-03-13T12:46:35.283Z,0.88
2023-03-13T12:49:39.971Z,3.72
2023-03-13T12:52:41.404Z,1.33
2023-03-13T12:55:38.779Z,3.33
2023-03-13T12:58:45.268Z,2.90
2023-03-13T13:01:35.350Z,0.10
2023-03-13T13:04:30.586Z,2.45
2023-03-13T13:07:39.122Z,2.28
2023-03-13T13:10:29.556Z,1.25
2023-03-13T13:13:15.868Z,3.92
2023-03-13T13:16:08.184Z,2.95
2023-03-13T13:18:56.420Z,2.60
2023-03-13T13:21:42.855Z,4.20
2023-03-13T13:24:59.937Z,0.10
2023-03-13T13:27:47.011Z,1.25
2023-03-13T13:30:34.216Z,0.65
2023-03-13T13:33:31.061Z,3.38
2023-03-13T13:36:28.623Z,3.40
2023-03-13T13:39:39.701Z,2.08
2023-03-13T13:42:32.217Z,0.88
2023-03-13T13:45:26.233Z,2.45
2023-03-13T13:48:27.998Z,3.90
2023-03-13T13:51:18.988Z,0.20
2023-03-13T13:54:18.114Z,3.78
2023-03-13T13:57:37.950Z,0.10
2023-03-13T14:00:35.401Z,2.58
2023-03-13T14:03:28.196Z,4.90
2023-03-13T14:06:32.197Z,3.50
2023-03-13T14:09:41.106Z,2.00
2023-03-13T14:12:38.640Z,0.47
2023-03-13T14:15:28.036Z,1.13
2023-03-13T14:18:30.196Z,0.70
2023-03-13T14:21:25.776Z,0.93
2023-03-13T14:24:16.138Z,2.88
2023-03-13T14:27:02.857Z,2.45
2023-03-13T14:30:05.727Z,2.22
2023-03-13T14:32:52.528Z,0.68
2023-03-13T14:35:40.055Z,0.98
2023-03-13T14:38:27.963Z,1.67
2023-03-13T14:41:32.789Z,4.93
2023-03-13T14:44:28.878Z,3.72
2023-03-13T14:47:30.880Z,3.63
2023-03-13T14:50:18.037Z,3.67
2023-03-13T14:53:13.302Z,0.20
2023-03-13T14:56:19.175Z,5.53
2023-03-13T14:59:28.496Z,0.47
2023-03-13T15:02:32.077Z,1.08
2023-03-13T15:05:33.278Z,1.13
2023-03-13T15:08:24.229Z,4.18
2023-03-13T15:11:34.185Z,2.00
2023-03-13T15:14:47.090Z,0.40
2023-03-13T15:17:34.333Z,2.33
2023-03-13T15:20:24.873Z,2.70
2023-03-13T15:23:15.826Z,2.03
2023-03-13T15:26:02.428Z,4.50
2023-03-13T15:28:51.052Z,0.68
2023-03-13T15:31:37.375Z,1.90
2023-03-13T15:34:25.525Z,0.43
2023-03-13T15:37:14.607Z,2.92
2023-03-13T15:40:00.656Z,1.40
2023-03-13T15:42:46.928Z,3.22
2023-03-13T15:45:33.299Z,1.20
2023-03-13T15:48:31.379Z,3.42
2023-03-13T15:51:17.792Z,2.58
2023-03-13T15:54:04.210Z,2.75
2023-03-13T15:56:50.560Z,3.78
2023-03-13T15:59:37.188Z,1.60
2023-03-13T16:02:24.982Z,2.10
2023-03-13T16:05:11.441Z,3.88
2023-03-13T16:07:57.432Z,4.90
2023-03-13T16:10:44.560Z,1.15
2023-03-13T16:13:31.037Z,2.13
2023-03-13T16:16:20.209Z,1.00
2023-03-13T16:19:07.793Z,2.20
2023-03-13T16:21:53.727Z,2.65
2023-03-13T16:24:41.078Z,1.25
2023-03-13T16:27:29.185Z,0.68
2023-03-13T16:30:22.269Z,2.78
2023-03-13T16:33:08.621Z,2.78
2023-03-13T16:35:55.191Z,4.80
2023-03-13T16:38:41.265Z,1.38
2023-03-13T16:41:28.794Z,2.15
2023-03-13T16:44:15.172Z,2.08
2023-03-13T16:47:05.940Z,2.63
2023-03-13T16:49:52.720Z,4.45
2023-03-13T16:52:38.907Z,3.15
2023-03-13T16:55:28.760Z,2.05
2023-03-13T16:58:14.612Z,1.63
2023-03-13T17:01:05.913Z,0.45
2023-03-13T17:03:53.306Z,2.88
2023-03-13T17:06:45.959Z,0.22
2023-03-13T17:09:32.332Z,2.40
2023-03-13T17:12:19.096Z,0.82
2023-03-13T17:15:05.725Z,2.33
2023-03-13T17:17:52.954Z,2.92
2023-03-13T17:20:39.093Z,2.58
2023-03-13T17:23:26.153Z,2.80
2023-03-13T17:26:36.758Z,3.40
2023-03-13T17:29:23.756Z,2.22
2023-03-13T17:32:14.212Z,0.77
2023-03-13T17:34:59.810Z,3.30
2023-03-13T17:37:45.776Z,3.05
2023-03-13T17:40:32.649Z,5.30
2023-03-13T17:43:18.776Z,2.10
2023-03-13T17:46:15.467Z,3.20
2023-03-13T17:49:01.989Z,5.47
2023-03-13T17:51:49.960Z,5.90
2023-03-13T17:54:35.499Z,5.80
2023-03-13T17:57:22.905Z,3.33
2023-03-13T18:00:24.901Z,4.95
2023-03-13T18:03:11.723Z,4.22
2023-03-13T18:05:58.080Z,4.43
2023-03-13T18:08:44.328Z,3.92
2023-03-13T18:11:30.595Z,5.47
2023-03-13T18:14:16.769Z,3.90
2023-03-13T18:17:02.928Z,4.68
2023-03-13T18:19:51.316Z,7.45
2023-03-13T18:22:37.354Z,4.10
2023-03-13T18:25:23.456Z,2.15
2023-03-13T18:28:12.459Z,5.80
2023-03-13T18:30:58.631Z,5.47
2023-03-13T18:33:46.618Z,6.05
2023-03-13T18:36:34.044Z,6.40
2023-03-13T18:39:20.477Z,6.90
2023-03-13T18:42:07.803Z,5.18
2023-03-13T18:44:53.998Z,2.50
2023-03-13T18:47:41.507Z,2.55
2023-03-13T18:50:31.158Z,1.55
2023-03-13T18:53:18.323Z,3.85
2023-03-13T18:56:33.359Z,3.13
2023-03-13T18:59:20.982Z,3.75
2023-03-13T19:02:19.468Z,1.77
2023-03-13T19:05:05.829Z,0.57
2023-03-13T19:07:51.938Z,1.55
2023-03-13T19:14:57.517Z,3.10
2023-03-13T19:17:47.881Z,1.88
2023-03-13T19:20:34.161Z,3.67
2023-03-13T19:23:20.301Z,3.03
2023-03-13T19:26:06.281Z,1.55
2023-03-13T19:28:58.266Z,2.10
2023-03-13T19:31:44.708Z,4.25
2023-03-13T19:34:33.758Z,2.90
2023-03-13T19:37:19.875Z,2.90
2023-03-13T19:40:17.730Z,1.98
2023-03-13T19:43:12.580Z,2.70
2023-03-13T19:45:59.889Z,4.00
2023-03-13T19:48:49.141Z,2.85
2023-03-13T19:51:37.015Z,1.17
2023-03-13T19:54:24.420Z,1.75
2023-03-13T19:57:11.872Z,5.13
2023-03-13T19:59:58.585Z,1.95
2023-03-13T20:02:45.025Z,6.25
2023-03-13T20:05:31.360Z,2.78
2023-03-13T20:08:20.544Z,1.13
2023-03-13T20:11:08.147Z,3.38
2023-03-13T20:13:55.001Z,4.65
2023-03-13T20:16:40.778Z,3.65
2023-03-13T20:19:29.507Z,4.05
2023-03-13T20:22:16.366Z,3.45
2023-03-13T20:25:02.532Z,0.17
2023-03-13T20:27:50.253Z,1.35
2023-03-13T20:30:40.687Z,1.95
2023-03-13T20:33:28.390Z,1.50
2023-03-13T20:36:24.989Z,2.35
2023-03-13T20:39:12.448Z,2.42
2023-03-13T20:42:02.686Z,5.85
2023-03-13T20:44:49.182Z,3.40
2023-03-13T20:47:36.063Z,2.05
2023-03-13T20:50:25.895Z,1.67
2023-03-13T20:53:14.761Z,3.53
2023-03-13T20:56:02.066Z,1.45
2023-03-13T20:58:48.404Z,4.20
2023-03-13T21:01:40.545Z,1.05
2023-03-13T21:04:26.757Z,2.30
2023-03-13T21:07:14.081Z,0.52
2023-03-13T21:10:01.284Z,0.30
2023-03-13T21:12:47.628Z,2.63
2023-03-13T21:15:34.513Z,4.65
2023-03-13T21:18:20.524Z,3.95
2023-03-13T21:21:15.214Z,5.53
2023-03-13T21:24:07.649Z,6.97
2023-03-13T21:26:53.449Z,6.10
2023-03-13T21:29:40.817Z,5.47
2023-03-13T21:32:27.004Z,8.10
2023-03-13T21:35:13.943Z,6.80
2023-03-13T21:38:00.588Z,8.38
2023-03-13T21:40:46.424Z,4.45
2023-03-13T21:43:32.250Z,1.45
2023-03-13T21:46:20.003Z,1.27
2023-03-13T21:49:06.109Z,3.22
2023-03-13T21:51:52.133Z,7.85
2023-03-13T21:54:42.083Z,3.60
2023-03-13T21:57:28.316Z,3.25
2023-03-13T22:00:15.050Z,1.85
2023-03-13T22:03:01.492Z,1.88
2023-03-13T22:05:47.302Z,5.50
2023-03-13T22:08:33.649Z,0.50
2023-03-13T22:11:20.299Z,7.28
2023-03-13T22:14:07.998Z,4.03
2023-03-13T22:16:54.431Z,5.32
2023-03-13T22:19:40.362Z,1.67
2023-03-13T22:22:26.472Z,4.43
2023-03-13T22:25:12.741Z,4.07
2023-03-13T22:27:59.018Z,7.07
2023-03-13T22:30:45.763Z,1.98
2023-03-13T22:33:32.355Z,6.45
2023-03-13T22:36:18.347Z,6.40
2023-03-13T22:39:07.958Z,7.13
2023-03-13T22:41:57.950Z,10.63
2023-03-13T22:44:44.396Z,8.40
2023-03-13T22:47:31.618Z,8.43
2023-03-13T22:50:21.048Z,12.30
2023-03-13T22:53:08.051Z,4.20
2023-03-13T22:55:54.180Z,3.95
2023-03-13T22:58:41.170Z,4.88
2023-03-13T23:01:27.477Z,4.95
2023-03-13T23:04:13.405Z,8.88
2023-03-13T23:06:59.116Z,7.97
2023-03-13T23:09:45.075Z,9.80
2023-03-13T23:12:31.442Z,8.48
2023-03-13T23:15:17.498Z,3.92
2023-03-13T23:18:03.777Z,9.13
2023-03-13T23:20:57.639Z,3.30
2023-03-13T23:23:44.484Z,3.95
2023-03-13T23:26:30.845Z,11.88
2023-03-13T23:29:16.728Z,9.82
2023-03-13T23:32:03.278Z,9.65
2023-03-13T23:34:49.485Z,12.48
2023-03-13T23:37:35.929Z,8.63
2023-03-13T23:40:23.417Z,3.60
2023-03-13T23:43:09.522Z,10.80
2023-03-13T23:45:58.459Z,7.03
2023-03-13T23:48:44.625Z,13.73
2023-03-13T23:51:31.152Z,11.65
2023-03-13T23:54:17.056Z,10.65
2023-03-13T23:57:06.216Z,8.20
2023-03-13T23:59:52.384Z,5.68
